createdAt,value
2017-03-28T00:00:41.267Z,1013.19
2017-03-28T00:01:41.250Z,1013.16
2017-03-28T00:02:41.240Z,1013.21
2017-03-28T00:03:41.221Z,1013.18
2017-03-28T00:04:41.201Z,1013.2
2017-03-28T00:05:41.185Z,1013.22
2017-03-28T00:06:41.176Z,1013.16
2017-03-28T00:07:41.153Z,1013.15
2017-03-28T00:08:41.135Z,1013.17
2017-03-28T00:09:41.121Z,1013.1
2017-03-28T00:10:41.102Z,1013.14
2017-03-28T00:11:41.087Z,1013.1
2017-03-28T00:12:41.074Z,1013.06
2017-03-28T00:13:41.054Z,1013.12
2017-03-28T00:14:41.038Z,1013.1
2017-03-28T00:15:41.021Z,1013.08
2017-03-28T00:16:41.004Z,1013.13
2017-03-28T00:17:40.987Z,1013.08
2017-03-28T00:18:40.972Z,1013.07
2017-03-28T00:19:40.957Z,1013.07
2017-03-28T00:20:40.937Z,1013.1
2017-03-28T00:21:40.921Z,1013.1
2017-03-28T00:22:40.906Z,1013.1
2017-03-28T00:23:40.889Z,1013.07
2017-03-28T00:24:40.875Z,1013.08
2017-03-28T00:25:40.857Z,1013.11
2017-03-28T00:26:40.841Z,1013.05
2017-03-28T00:27:40.828Z,1013.08
2017-03-28T00:28:40.806Z,1013.03
2017-03-28T00:29:40.788Z,1013.06
2017-03-28T00:30:40.773Z,1013.07
2017-03-28T00:31:40.757Z,1013.04
2017-03-28T00:32:40.742Z,1013.09
2017-03-28T00:33:40.725Z,1013.05
2017-03-28T00:34:40.709Z,1013.06
2017-03-28T00:35:40.691Z,1013.02
2017-03-28T00:36:40.673Z,1013.01
2017-03-28T00:37:40.657Z,1013.03
2017-03-28T00:38:40.641Z,1013.02
2017-03-28T00:39:40.625Z,1013.04
2017-03-28T00:40:40.608Z,1013.02
2017-03-28T00:41:40.593Z,1013.04
2017-03-28T00:42:40.575Z,1013.05
2017-03-28T00:43:40.569Z,1013.05
2017-03-28T00:44:40.541Z,1013.02
2017-03-28T00:45:40.524Z,1013.05
2017-03-28T00:46:40.508Z,1013.04
2017-03-28T00:47:40.492Z,1013.03
2017-03-28T00:48:40.475Z,1012.96
2017-03-28T00:49:40.461Z,1012.99
2017-03-28T00:50:40.442Z,1012.97
2017-03-28T00:51:40.426Z,1012.97
2017-03-28T00:52:40.409Z,1012.97
2017-03-28T00:53:40.392Z,1012.97
2017-03-28T00:54:40.374Z,1012.94
2017-03-28T00:55:40.359Z,1012.95
2017-03-28T00:56:40.348Z,1012.93
2017-03-28T00:57:40.326Z,1012.92
2017-03-28T00:58:40.311Z,1012.91
2017-03-28T00:59:40.294Z,1012.89
2017-03-28T01:00:40.277Z,1012.88
2017-03-28T01:01:40.260Z,1012.86
2017-03-28T01:02:40.243Z,1012.85
2017-03-28T01:03:40.226Z,1012.85
2017-03-28T01:04:40.209Z,1012.85
2017-03-28T01:05:40.193Z,1012.88
2017-03-28T01:06:40.180Z,1012.84
2017-03-28T01:07:40.160Z,1012.86
2017-03-28T01:08:40.142Z,1012.82
2017-03-28T01:09:40.128Z,1012.8
2017-03-28T01:10:40.111Z,1012.83
2017-03-28T01:11:40.094Z,1012.83
2017-03-28T01:12:40.077Z,1012.8
2017-03-28T01:13:40.061Z,1012.82
2017-03-28T01:14:40.046Z,1012.77
2017-03-28T01:15:40.026Z,1012.83
2017-03-28T01:16:40.009Z,1012.74
2017-03-28T01:17:39.995Z,1012.76
2017-03-28T01:18:39.978Z,1012.79
2017-03-28T01:19:39.963Z,1012.74
2017-03-28T01:20:39.944Z,1012.73
2017-03-28T01:21:39.926Z,1012.74
2017-03-28T01:22:39.908Z,1012.7
2017-03-28T01:23:39.894Z,1012.69
2017-03-28T01:24:39.877Z,1012.65
2017-03-28T01:25:39.860Z,1012.72
2017-03-28T01:26:39.845Z,1012.65
2017-03-28T01:27:39.827Z,1012.63
2017-03-28T01:28:39.810Z,1012.63
2017-03-28T01:29:39.794Z,1012.6
2017-03-28T01:30:39.775Z,1012.59
2017-03-28T01:31:39.763Z,1012.56
2017-03-28T01:32:39.744Z,1012.58
2017-03-28T01:33:39.725Z,1012.57
2017-03-28T01:34:39.913Z,1012.54
2017-03-28T01:35:39.692Z,1012.55
2017-03-28T01:36:39.677Z,1012.51
2017-03-28T01:37:39.659Z,1012.47
2017-03-28T01:38:39.643Z,1012.44
2017-03-28T01:39:39.629Z,1012.45
2017-03-28T01:40:39.611Z,1012.41
2017-03-28T01:41:39.592Z,1012.47
2017-03-28T01:42:39.577Z,1012.41
2017-03-28T01:43:39.559Z,1012.41
2017-03-28T01:44:39.541Z,1012.43
2017-03-28T01:45:39.523Z,1012.4
2017-03-28T01:46:39.508Z,1012.38
2017-03-28T01:47:39.492Z,1012.38
2017-03-28T01:48:39.474Z,1012.38
2017-03-28T01:49:39.508Z,1012.36
2017-03-28T01:50:39.443Z,1012.31
2017-03-28T01:51:39.423Z,1012.34
2017-03-28T01:52:39.405Z,1012.31
2017-03-28T01:53:39.390Z,1012.33
2017-03-28T01:54:39.375Z,1012.29
2017-03-28T01:55:39.358Z,1012.34
2017-03-28T01:56:39.343Z,1012.32
2017-03-28T01:57:39.323Z,1012.3
2017-03-28T01:58:39.306Z,1012.29
2017-03-28T01:59:39.288Z,1012.29
2017-03-28T02:00:39.274Z,1012.28
2017-03-28T02:01:39.256Z,1012.25
2017-03-28T02:02:39.242Z,1012.24
2017-03-28T02:03:39.225Z,1012.24
2017-03-28T02:04:39.204Z,1012.21
2017-03-28T02:05:39.188Z,1012.24
2017-03-28T02:06:39.170Z,1012.25
2017-03-28T02:07:39.156Z,1012.25
2017-03-28T02:08:39.137Z,1012.25
2017-03-28T02:09:39.121Z,1012.24
2017-03-28T02:10:39.103Z,1012.24
2017-03-28T02:11:39.085Z,1012.26
2017-03-28T02:12:39.073Z,1012.27
2017-03-28T02:13:39.054Z,1012.25
2017-03-28T02:14:39.036Z,1012.24
2017-03-28T02:15:39.017Z,1012.24
2017-03-28T02:16:39.003Z,1012.19
2017-03-28T02:17:38.982Z,1012.22
2017-03-28T02:18:38.971Z,1012.18
2017-03-28T02:19:38.951Z,1012.19
2017-03-28T02:20:38.935Z,1012.16
2017-03-28T02:21:38.916Z,1012.18
2017-03-28T02:22:38.901Z,1012.17
2017-03-28T02:23:38.882Z,1012.18
2017-03-28T02:24:38.865Z,1012.13
2017-03-28T02:25:38.848Z,1012.15
2017-03-28T02:26:38.831Z,1012.12
2017-03-28T02:27:38.819Z,1012.12
2017-03-28T02:28:38.797Z,1012.12
2017-03-28T02:29:38.782Z,1012.13
2017-03-28T02:30:38.763Z,1012.07
2017-03-28T02:31:38.747Z,1012.1
2017-03-28T02:32:38.730Z,1012.1
2017-03-28T02:33:38.711Z,1012.1
2017-03-28T02:34:38.720Z,1012.06
2017-03-28T02:35:38.677Z,1012.02
2017-03-28T02:36:38.661Z,1012.08
2017-03-28T02:37:38.648Z,1012.09
2017-03-28T02:38:38.627Z,1012.09
2017-03-28T02:39:38.608Z,1012.09
2017-03-28T02:40:38.594Z,1012.1
2017-03-28T02:41:38.574Z,1012.1
2017-03-28T02:42:38.559Z,1012.05
2017-03-28T02:43:38.540Z,1012.08
2017-03-28T02:44:38.523Z,1012.1
2017-03-28T02:45:38.507Z,1012.09
2017-03-28T02:46:38.490Z,1012.09
2017-03-28T02:47:38.474Z,1012.07
2017-03-28T02:48:38.456Z,1012.07
2017-03-28T02:49:38.439Z,1012.04
2017-03-28T02:50:38.425Z,1012.05
2017-03-28T02:51:38.405Z,1012.05
2017-03-28T02:52:38.388Z,1012.01
2017-03-28T02:53:38.369Z,1012.04
2017-03-28T02:54:38.355Z,1012.02
2017-03-28T02:55:38.335Z,1012.04
2017-03-28T02:56:38.320Z,1012.02
2017-03-28T02:57:38.300Z,1012.01
2017-03-28T02:58:38.289Z,1012.01
2017-03-28T02:59:38.267Z,1012
2017-03-28T03:00:38.249Z,1011.98
2017-03-28T03:01:38.232Z,1012
2017-03-28T03:02:38.217Z,1011.99
2017-03-28T03:03:38.200Z,1011.97
2017-03-28T03:04:38.188Z,1011.97
2017-03-28T03:05:38.165Z,1012
2017-03-28T03:06:38.145Z,1011.98
2017-03-28T03:07:38.129Z,1012.01
2017-03-28T03:08:38.111Z,1012.04
2017-03-28T03:09:38.092Z,1012.01
2017-03-28T03:10:38.076Z,1012
2017-03-28T03:11:38.060Z,1011.98
2017-03-28T03:12:38.042Z,1012
2017-03-28T03:13:38.026Z,1011.98
2017-03-28T03:14:38.012Z,1011.99
2017-03-28T03:15:37.991Z,1012.02
2017-03-28T03:16:37.973Z,1011.98
2017-03-28T03:17:37.954Z,1011.99
2017-03-28T03:18:37.938Z,1012.01
2017-03-28T03:19:37.921Z,1011.99
2017-03-28T03:20:37.902Z,1011.93
2017-03-28T03:21:37.885Z,1011.97
2017-03-28T03:22:37.868Z,1011.97
2017-03-28T03:23:37.851Z,1011.94
2017-03-28T03:24:37.833Z,1011.91
2017-03-28T03:25:37.814Z,1011.94
2017-03-28T03:26:37.800Z,1011.95
2017-03-28T03:27:37.779Z,1011.91
2017-03-28T03:28:37.763Z,1011.91
2017-03-28T03:29:37.747Z,1011.89
2017-03-28T03:30:37.777Z,1011.87
2017-03-28T03:31:37.710Z,1011.94
2017-03-28T03:32:37.693Z,1011.89
2017-03-28T03:33:37.675Z,1011.92
2017-03-28T03:34:37.861Z,1011.92
2017-03-28T03:35:37.643Z,1011.87
2017-03-28T03:36:37.623Z,1011.86
2017-03-28T03:37:37.604Z,1011.87
2017-03-28T03:38:37.589Z,1011.88
2017-03-28T03:39:37.570Z,1011.84
2017-03-28T03:40:37.601Z,1011.84
2017-03-28T03:41:37.535Z,1011.85
2017-03-28T03:42:37.517Z,1011.84
2017-03-28T03:43:37.499Z,1011.84
2017-03-28T03:44:37.483Z,1011.85
2017-03-28T03:45:37.463Z,1011.88
2017-03-28T03:46:37.446Z,1011.87
2017-03-28T03:47:37.429Z,1011.84
2017-03-28T03:48:37.410Z,1011.85
2017-03-28T03:49:37.394Z,1011.87
2017-03-28T03:50:37.377Z,1011.86
2017-03-28T03:51:37.357Z,1011.87
2017-03-28T03:52:37.348Z,1011.86
2017-03-28T03:53:37.324Z,1011.86
2017-03-28T03:54:37.306Z,1011.82
2017-03-28T03:55:37.289Z,1011.81
2017-03-28T03:56:37.270Z,1011.8
2017-03-28T03:57:37.251Z,1011.85
2017-03-28T03:58:37.236Z,1011.85
2017-03-28T03:59:37.220Z,1011.86
2017-03-28T04:00:37.198Z,1011.85
2017-03-28T04:01:37.180Z,1011.87
2017-03-28T04:02:37.164Z,1011.87
2017-03-28T04:03:37.147Z,1011.9
2017-03-28T04:04:37.131Z,1011.88
2017-03-28T04:05:37.112Z,1011.88
2017-03-28T04:06:37.093Z,1011.82
2017-03-28T04:07:37.087Z,1011.82
2017-03-28T04:08:37.058Z,1011.81
2017-03-28T04:09:37.041Z,1011.86
2017-03-28T04:10:37.021Z,1011.83
2017-03-28T04:11:37.003Z,1011.81
2017-03-28T04:12:36.986Z,1011.87
2017-03-28T04:13:36.971Z,1011.87
2017-03-28T04:14:36.953Z,1011.89
2017-03-28T04:15:36.934Z,1011.84
2017-03-28T04:16:36.916Z,1011.85
2017-03-28T04:17:36.932Z,1011.86
2017-03-28T04:18:36.881Z,1011.82
2017-03-28T04:19:36.864Z,1011.88
2017-03-28T04:20:36.844Z,1011.84
2017-03-28T04:21:36.827Z,1011.83
2017-03-28T04:22:36.811Z,1011.84
2017-03-28T04:23:36.794Z,1011.84
2017-03-28T04:24:36.776Z,1011.83
2017-03-28T04:25:36.756Z,1011.84
2017-03-28T04:26:36.737Z,1011.84
2017-03-28T04:27:36.722Z,1011.86
2017-03-28T04:28:36.702Z,1011.86
2017-03-28T04:29:36.684Z,1011.82
2017-03-28T04:30:36.667Z,1011.88
2017-03-28T04:31:36.648Z,1011.85
2017-03-28T04:32:36.633Z,1011.85
2017-03-28T04:33:36.612Z,1011.84
2017-03-28T04:34:36.596Z,1011.84
2017-03-28T04:35:36.578Z,1011.87
2017-03-28T04:36:36.563Z,1011.88
2017-03-28T04:37:36.542Z,1011.89
2017-03-28T04:38:36.522Z,1011.91
2017-03-28T04:39:36.510Z,1011.91
2017-03-28T04:40:36.485Z,1011.89
2017-03-28T04:41:36.472Z,1011.92
2017-03-28T04:42:36.450Z,1011.92
2017-03-28T04:43:36.431Z,1011.91
2017-03-28T04:44:36.421Z,1011.91
2017-03-28T04:45:36.397Z,1011.93
2017-03-28T04:46:36.384Z,1011.91
2017-03-28T04:47:36.363Z,1011.89
2017-03-28T04:48:36.345Z,1011.89
2017-03-28T04:49:36.327Z,1011.94
2017-03-28T04:50:36.309Z,1011.88
2017-03-28T04:51:36.289Z,1011.92
2017-03-28T04:52:36.270Z,1011.93
2017-03-28T04:53:36.259Z,1011.91
2017-03-28T04:54:36.233Z,1011.93
2017-03-28T04:55:36.215Z,1011.91
2017-03-28T04:56:36.199Z,1011.87
2017-03-28T04:57:36.179Z,1011.9
2017-03-28T04:58:36.162Z,1011.88
2017-03-28T04:59:36.142Z,1011.93
2017-03-28T05:00:36.127Z,1011.92
2017-03-28T05:01:36.107Z,1011.91
2017-03-28T05:02:36.088Z,1011.95
2017-03-28T05:03:36.070Z,1011.96
2017-03-28T05:04:36.052Z,1011.98
2017-03-28T05:05:36.035Z,1011.99
2017-03-28T05:06:36.017Z,1012
2017-03-28T05:07:35.998Z,1012.01
2017-03-28T05:08:35.999Z,1012.04
2017-03-28T05:09:35.961Z,1012.01
2017-03-28T05:10:35.942Z,1012.02
2017-03-28T05:11:35.925Z,1012.02
2017-03-28T05:12:35.907Z,1012.03
2017-03-28T05:13:35.888Z,1012.03
2017-03-28T05:14:35.870Z,1011.99
2017-03-28T05:15:35.851Z,1012.04
2017-03-28T05:16:35.833Z,1011.99
2017-03-28T05:17:35.814Z,1012
2017-03-28T05:18:35.796Z,1012.03
2017-03-28T05:19:35.776Z,1012
2017-03-28T05:20:35.760Z,1011.98
2017-03-28T05:21:35.742Z,1012.04
2017-03-28T05:22:35.722Z,1012.02
2017-03-28T05:23:35.705Z,1012.06
2017-03-28T05:24:35.686Z,1012.02
2017-03-28T05:25:35.667Z,1012.04
2017-03-28T05:26:35.649Z,1012.06
2017-03-28T05:27:35.630Z,1012.05
2017-03-28T05:28:35.613Z,1012.06
2017-03-28T05:29:35.594Z,1012.03
2017-03-28T05:30:35.575Z,1012.06
2017-03-28T05:31:35.557Z,1012.04
2017-03-28T05:32:35.540Z,1012.04
2017-03-28T05:33:35.521Z,1012.04
2017-03-28T05:34:35.704Z,1012.01
2017-03-28T05:35:35.483Z,1012.03
2017-03-28T05:36:35.465Z,1012
2017-03-28T05:37:35.449Z,1012.01
2017-03-28T05:38:35.429Z,1012.02
2017-03-28T05:39:35.410Z,1011.98
2017-03-28T05:40:35.394Z,1012.06
2017-03-28T05:41:35.380Z,1011.99
2017-03-28T05:42:35.359Z,1012.06
2017-03-28T05:43:35.338Z,1012.02
2017-03-28T05:44:35.321Z,1012.03
2017-03-28T05:45:35.302Z,1012.06
2017-03-28T05:46:35.282Z,1012.08
2017-03-28T05:47:35.267Z,1012.05
2017-03-28T05:48:35.247Z,1012.02
2017-03-28T05:49:35.228Z,1012.04
2017-03-28T05:50:35.211Z,1012.07
2017-03-28T05:51:35.194Z,1012.08
2017-03-28T05:52:35.175Z,1012.09
2017-03-28T05:53:35.155Z,1012.07
2017-03-28T05:54:35.137Z,1012.13
2017-03-28T05:55:35.120Z,1012.13
2017-03-28T05:56:35.102Z,1012.16
2017-03-28T05:57:35.084Z,1012.12
2017-03-28T05:58:35.068Z,1012.13
2017-03-28T05:59:35.048Z,1012.16
2017-03-28T06:00:35.028Z,1012.14
2017-03-28T06:01:35.011Z,1012.16
2017-03-28T06:02:34.995Z,1012.12
2017-03-28T06:03:34.977Z,1012.15
2017-03-28T06:04:34.959Z,1012.16
2017-03-28T06:05:34.940Z,1012.17
2017-03-28T06:06:34.922Z,1012.19
2017-03-28T06:07:34.902Z,1012.17
2017-03-28T06:08:34.887Z,1012.2
2017-03-28T06:09:34.871Z,1012.19
2017-03-28T06:10:34.851Z,1012.17
2017-03-28T06:11:34.832Z,1012.17
2017-03-28T06:12:34.815Z,1012.18
2017-03-28T06:13:34.797Z,1012.18
2017-03-28T06:14:34.780Z,1012.13
2017-03-28T06:15:34.761Z,1012.16
2017-03-28T06:16:34.744Z,1012.19
2017-03-28T06:17:34.731Z,1012.16
2017-03-28T06:18:34.708Z,1012.19
2017-03-28T06:19:34.692Z,1012.15
2017-03-28T06:20:34.674Z,1012.15
2017-03-28T06:21:34.655Z,1012.15
2017-03-28T06:22:34.637Z,1012.19
2017-03-28T06:23:34.619Z,1012.18
2017-03-28T06:24:34.601Z,1012.18
2017-03-28T06:25:34.584Z,1012.17
2017-03-28T06:26:34.567Z,1012.14
2017-03-28T06:27:34.549Z,1012.2
2017-03-28T06:28:34.531Z,1012.17
2017-03-28T06:29:34.514Z,1012.18
2017-03-28T06:30:34.498Z,1012.17
2017-03-28T06:31:34.479Z,1012.18
2017-03-28T06:32:34.462Z,1012.18
2017-03-28T06:33:34.445Z,1012.22
2017-03-28T06:34:34.427Z,1012.2
2017-03-28T06:35:34.409Z,1012.19
2017-03-28T06:36:34.390Z,1012.18
2017-03-28T06:37:34.375Z,1012.17
2017-03-28T06:38:34.357Z,1012.18
2017-03-28T06:39:34.361Z,1012.22
2017-03-28T06:40:34.322Z,1012.18
2017-03-28T06:41:34.307Z,1012.22
2017-03-28T06:42:34.288Z,1012.21
2017-03-28T06:43:34.273Z,1012.26
2017-03-28T06:44:34.257Z,1012.28
2017-03-28T06:45:34.237Z,1012.24
2017-03-28T06:46:34.221Z,1012.28
2017-03-28T06:47:34.205Z,1012.25
2017-03-28T06:48:34.186Z,1012.27
2017-03-28T06:49:34.170Z,1012.3
2017-03-28T06:50:34.153Z,1012.33
2017-03-28T06:51:34.136Z,1012.3
2017-03-28T06:52:34.120Z,1012.32
2017-03-28T06:53:34.102Z,1012.32
2017-03-28T06:54:34.087Z,1012.35
2017-03-28T06:55:34.071Z,1012.36
2017-03-28T06:56:34.052Z,1012.36
2017-03-28T06:57:34.041Z,1012.37
2017-03-28T06:58:34.047Z,1012.36
2017-03-28T06:59:34.002Z,1012.37
2017-03-28T07:00:33.987Z,1012.34
2017-03-28T07:01:33.972Z,1012.32
2017-03-28T07:02:33.959Z,1012.36
2017-03-28T07:03:33.943Z,1012.35
2017-03-28T07:04:33.928Z,1012.39
2017-03-28T07:05:33.906Z,1012.35
2017-03-28T07:06:33.892Z,1012.36
2017-03-28T07:07:33.873Z,1012.35
2017-03-28T07:08:33.857Z,1012.32
2017-03-28T07:09:33.841Z,1012.33
2017-03-28T07:10:33.824Z,1012.34
2017-03-28T07:11:33.808Z,1012.32
2017-03-28T07:12:33.794Z,1012.38
2017-03-28T07:13:33.779Z,1012.37
2017-03-28T07:14:33.763Z,1012.36
2017-03-28T07:15:33.745Z,1012.37
2017-03-28T07:16:33.729Z,1012.38
2017-03-28T07:17:33.714Z,1012.37
2017-03-28T07:18:33.698Z,1012.35
2017-03-28T07:19:33.684Z,1012.37
2017-03-28T07:20:33.667Z,1012.38
2017-03-28T07:21:33.653Z,1012.38
2017-03-28T07:22:33.636Z,1012.37
2017-03-28T07:23:33.623Z,1012.38
2017-03-28T07:24:33.603Z,1012.37
2017-03-28T07:25:33.590Z,1012.35
2017-03-28T07:26:33.573Z,1012.38
2017-03-28T07:27:33.559Z,1012.37
2017-03-28T07:28:33.546Z,1012.37
2017-03-28T07:29:33.536Z,1012.38
2017-03-28T07:30:33.516Z,1012.35
2017-03-28T07:31:33.500Z,1012.4
2017-03-28T07:32:33.486Z,1012.38
2017-03-28T07:33:33.469Z,1012.42
2017-03-28T07:34:33.455Z,1012.41
2017-03-28T07:35:33.440Z,1012.39
2017-03-28T07:36:33.474Z,1012.44
2017-03-28T07:37:33.415Z,1012.43
2017-03-28T07:38:33.399Z,1012.39
2017-03-28T07:39:33.382Z,1012.41
2017-03-28T07:40:33.367Z,1012.36
2017-03-28T07:41:33.354Z,1012.38
2017-03-28T07:42:33.337Z,1012.38
2017-03-28T07:43:33.325Z,1012.42
2017-03-28T07:44:33.310Z,1012.41
2017-03-28T07:45:33.296Z,1012.41
2017-03-28T07:46:33.282Z,1012.41
2017-03-28T07:47:33.268Z,1012.45
2017-03-28T07:48:33.257Z,1012.45
2017-03-28T07:49:33.249Z,1012.41
2017-03-28T07:50:33.225Z,1012.43
2017-03-28T07:51:33.213Z,1012.49
2017-03-28T07:52:33.200Z,1012.53
2017-03-28T07:53:33.186Z,1012.49
2017-03-28T07:54:33.172Z,1012.55
2017-03-28T07:55:33.157Z,1012.53
2017-03-28T07:56:33.150Z,1012.49
2017-03-28T07:57:33.129Z,1012.53
2017-03-28T07:58:33.119Z,1012.51
2017-03-28T07:59:33.102Z,1012.53
2017-03-28T08:00:33.091Z,1012.56
2017-03-28T08:01:33.075Z,1012.56
2017-03-28T08:02:33.064Z,1012.61
2017-03-28T08:03:33.056Z,1012.57
2017-03-28T08:04:33.038Z,1012.57
2017-03-28T08:05:33.024Z,1012.59
2017-03-28T08:06:33.010Z,1012.6
2017-03-28T08:07:32.999Z,1012.59
2017-03-28T08:08:32.986Z,1012.59
2017-03-28T08:09:32.972Z,1012.57
2017-03-28T08:10:32.958Z,1012.57
2017-03-28T08:11:32.948Z,1012.58
2017-03-28T08:12:32.934Z,1012.58
2017-03-28T08:13:32.924Z,1012.63
2017-03-28T08:14:32.910Z,1012.65
2017-03-28T08:15:32.897Z,1012.66
2017-03-28T08:16:32.884Z,1012.73
2017-03-28T08:17:32.873Z,1012.91
2017-03-28T08:18:32.870Z,1012.99
2017-03-28T08:19:32.847Z,1013
2017-03-28T08:20:32.839Z,1013.06
2017-03-28T08:21:32.825Z,1013.03
2017-03-28T08:22:32.826Z,1013.04
2017-03-28T08:23:32.805Z,1013.07
2017-03-28T08:24:32.797Z,1013.03
2017-03-28T08:25:32.789Z,1013.06
2017-03-28T08:26:32.775Z,1013.13
2017-03-28T08:27:32.768Z,1013.13
2017-03-28T08:28:32.758Z,1013.2
2017-03-28T08:29:32.751Z,1013.13
2017-03-28T08:30:32.746Z,1013.13
2017-03-28T08:31:32.735Z,1013.07
2017-03-28T08:32:32.730Z,1013.11
2017-03-28T08:33:32.726Z,1013.13
2017-03-28T08:34:32.716Z,1013.12
2017-03-28T08:35:32.709Z,1013.1
2017-03-28T08:36:32.705Z,1013.05
2017-03-28T08:37:32.697Z,1013.07
2017-03-28T08:38:32.692Z,1013.09
2017-03-28T08:39:32.689Z,1013.14
2017-03-28T08:40:32.684Z,1013.13
2017-03-28T08:41:32.679Z,1013.13
2017-03-28T08:42:32.675Z,1013.11
2017-03-28T08:43:32.669Z,1013.16
2017-03-28T08:44:32.665Z,1013.25
2017-03-28T08:45:32.660Z,1013.24
2017-03-28T08:46:32.655Z,1013.26
2017-03-28T08:47:32.655Z,1013.17
2017-03-28T08:48:32.647Z,1013.17
2017-03-28T08:49:32.642Z,1013.16
2017-03-28T08:50:32.640Z,1013.13
2017-03-28T08:51:32.638Z,1013.1
2017-03-28T08:52:32.631Z,1013.11
2017-03-28T08:53:32.627Z,1013.14
2017-03-28T08:54:32.624Z,1013.13
2017-03-28T08:55:32.619Z,1013.15
2017-03-28T08:56:32.614Z,1013.19
2017-03-28T08:57:32.611Z,1013.25
2017-03-28T08:58:32.612Z,1013.2
2017-03-28T08:59:32.605Z,1013.15
2017-03-28T09:00:32.599Z,1013.15
2017-03-28T09:01:32.602Z,1013.1
2017-03-28T09:02:32.602Z,1013.09
2017-03-28T09:03:32.586Z,1013.08
2017-03-28T09:04:32.582Z,1013.08
2017-03-28T09:05:32.578Z,1013.09
2017-03-28T09:06:32.574Z,1013.07
2017-03-28T09:07:32.571Z,1013.12
2017-03-28T09:08:32.565Z,1013.1
2017-03-28T09:09:32.562Z,1013.15
2017-03-28T09:10:32.556Z,1013.14
2017-03-28T09:11:32.553Z,1013.09
2017-03-28T09:12:32.551Z,1013.11
2017-03-28T09:13:32.542Z,1013.15
2017-03-28T09:14:32.540Z,1013.14
2017-03-28T09:15:32.539Z,1013.08
2017-03-28T09:16:32.529Z,1013.03
2017-03-28T09:17:32.524Z,1013.05
2017-03-28T09:18:32.518Z,1013.11
2017-03-28T09:19:32.512Z,1013.12
2017-03-28T09:20:32.508Z,1013.11
2017-03-28T09:21:32.504Z,1013.14
2017-03-28T09:22:32.500Z,1013.11
2017-03-28T09:23:32.493Z,1013.11
2017-03-28T09:24:32.489Z,1013.09
2017-03-28T09:25:32.482Z,1013.09
2017-03-28T09:26:32.528Z,1013.12
2017-03-28T09:27:32.476Z,1013.05
2017-03-28T09:28:32.468Z,1013.04
2017-03-28T09:29:32.465Z,1013
2017-03-28T09:30:32.467Z,1013
2017-03-28T09:31:32.456Z,1013
2017-03-28T09:32:32.448Z,1013
2017-03-28T09:33:32.444Z,1013.01
2017-03-28T09:34:32.440Z,1013.01
2017-03-28T09:35:32.637Z,1013.05
2017-03-28T09:36:32.429Z,1013.09
2017-03-28T09:37:32.427Z,1013.09
2017-03-28T09:38:32.418Z,1013.02
2017-03-28T09:39:32.414Z,1013.06
2017-03-28T09:40:32.409Z,1013.08
2017-03-28T09:41:32.403Z,1013.05
2017-03-28T09:42:32.400Z,1013
2017-03-28T09:43:32.395Z,1012.99
2017-03-28T09:44:32.391Z,1013
2017-03-28T09:45:32.387Z,1013
2017-03-28T09:46:32.380Z,1013.04
2017-03-28T09:47:32.378Z,1013.08
2017-03-28T09:48:32.378Z,1013.1
2017-03-28T09:49:32.374Z,1013.06
2017-03-28T09:50:32.360Z,1013.12
2017-03-28T09:51:32.355Z,1013.08
2017-03-28T09:52:32.353Z,1013.06
2017-03-28T09:53:32.350Z,1013.14
2017-03-28T09:54:32.343Z,1013.18
2017-03-28T09:55:32.336Z,1013.1
2017-03-28T09:56:32.332Z,1013.08
2017-03-28T09:57:32.329Z,1013
2017-03-28T09:58:32.325Z,1013.05
2017-03-28T09:59:32.521Z,1013.04
2017-03-28T10:00:32.316Z,1013.06
2017-03-28T10:01:32.309Z,1013.01
2017-03-28T10:02:32.305Z,1013.02
2017-03-28T10:03:32.300Z,1013.04
2017-03-28T10:04:32.312Z,1013.03
2017-03-28T10:05:32.289Z,1013.04
2017-03-28T10:06:32.286Z,1013.04
2017-03-28T10:07:32.281Z,1012.98
2017-03-28T10:08:32.278Z,1013.01
2017-03-28T10:09:32.277Z,1012.99
2017-03-28T10:10:32.268Z,1013.01
2017-03-28T10:11:32.265Z,1012.98
2017-03-28T10:12:32.259Z,1012.99
2017-03-28T10:13:32.255Z,1013.03
2017-03-28T10:14:32.260Z,1012.95
2017-03-28T10:15:32.250Z,1012.99
2017-03-28T10:16:32.244Z,1013
2017-03-28T10:17:32.239Z,1012.99
2017-03-28T10:18:32.238Z,1012.94
2017-03-28T10:19:32.233Z,1012.97
2017-03-28T10:20:32.228Z,1012.97
2017-03-28T10:21:32.225Z,1012.99
2017-03-28T10:22:32.223Z,1012.99
2017-03-28T10:23:32.224Z,1012.99
2017-03-28T10:24:32.215Z,1012.98
2017-03-28T10:26:32.411Z,1012.98
2017-03-28T10:27:32.213Z,1013
2017-03-28T10:28:32.203Z,1012.95
2017-03-28T10:29:32.198Z,1012.97
2017-03-28T10:30:32.211Z,1012.99
2017-03-28T10:31:32.192Z,1013
2017-03-28T10:32:32.192Z,1013
2017-03-28T10:33:32.185Z,1013.02
2017-03-28T10:34:32.181Z,1013.06
2017-03-28T10:35:32.179Z,1013.02
2017-03-28T10:36:32.175Z,1013.03
2017-03-28T10:37:32.173Z,1013.07
2017-03-28T10:38:32.171Z,1013.08
2017-03-28T10:39:32.369Z,1013.1
2017-03-28T10:40:32.163Z,1013.09
2017-03-28T10:41:32.165Z,1013.08
2017-03-28T10:42:32.163Z,1013.13
2017-03-28T10:43:32.177Z,1013.17
2017-03-28T10:44:32.152Z,1013.07
2017-03-28T10:45:32.151Z,1013.07
2017-03-28T10:46:32.149Z,1013.03
2017-03-28T10:47:32.152Z,1013.03
2017-03-28T10:48:32.147Z,1013.08
2017-03-28T10:49:32.146Z,1013.04
2017-03-28T10:50:32.137Z,1013.02
2017-03-28T10:51:32.135Z,1013.02
2017-03-28T10:52:32.133Z,1013.04
2017-03-28T10:53:32.130Z,1013.08
2017-03-28T10:54:32.130Z,1013.12
2017-03-28T10:55:32.127Z,1013.09
2017-03-28T10:56:32.127Z,1013.05
2017-03-28T10:57:32.123Z,1012.94
2017-03-28T10:58:32.123Z,1012.74
2017-03-28T10:59:32.123Z,1012.71
2017-03-28T11:00:32.120Z,1012.7
2017-03-28T11:01:32.123Z,1012.64
2017-03-28T11:02:32.126Z,1012.57
2017-03-28T11:03:32.120Z,1012.55
2017-03-28T11:04:32.118Z,1012.58
2017-03-28T11:05:32.117Z,1012.49
2017-03-28T11:06:32.119Z,1012.45
2017-03-28T11:07:32.117Z,1012.45
2017-03-28T11:08:32.118Z,1012.43
2017-03-28T11:09:32.119Z,1012.47
2017-03-28T11:10:32.124Z,1012.53
2017-03-28T11:11:32.119Z,1012.61
2017-03-28T11:12:32.122Z,1012.76
2017-03-28T11:13:32.127Z,1012.84
2017-03-28T11:14:32.127Z,1012.96
2017-03-28T11:15:32.122Z,1013.01
2017-03-28T11:16:32.123Z,1013.01
2017-03-28T11:17:32.126Z,1013.02
2017-03-28T11:18:32.124Z,1012.99
2017-03-28T11:19:32.127Z,1012.97
2017-03-28T11:20:32.128Z,1013.03
2017-03-28T11:21:32.180Z,1013.04
2017-03-28T11:22:32.129Z,1013.03
2017-03-28T11:23:32.131Z,1013.02
2017-03-28T11:24:32.133Z,1013.02
2017-03-28T11:25:32.133Z,1012.98
2017-03-28T11:26:32.135Z,1012.95
2017-03-28T11:27:32.140Z,1012.97
2017-03-28T11:28:32.137Z,1012.95
2017-03-28T11:29:32.147Z,1012.93
2017-03-28T11:30:32.143Z,1012.9
2017-03-28T11:31:32.144Z,1012.94
2017-03-28T11:32:32.147Z,1012.96
2017-03-28T11:33:32.148Z,1012.96
2017-03-28T11:34:32.151Z,1012.98
2017-03-28T11:35:32.353Z,1012.96
2017-03-28T11:36:32.152Z,1012.95
2017-03-28T11:37:32.206Z,1012.94
2017-03-28T11:38:32.159Z,1012.94
2017-03-28T11:39:32.159Z,1012.92
2017-03-28T11:40:32.161Z,1012.95
2017-03-28T11:41:32.165Z,1012.95
2017-03-28T11:42:32.166Z,1012.93
2017-03-28T11:43:32.168Z,1012.9
2017-03-28T11:44:32.168Z,1012.88
2017-03-28T11:45:32.172Z,1012.88
2017-03-28T11:46:32.173Z,1012.88
2017-03-28T11:47:32.175Z,1012.87
2017-03-28T11:48:32.178Z,1012.81
2017-03-28T11:49:32.180Z,1012.88
2017-03-28T11:50:32.184Z,1012.89
2017-03-28T11:51:32.184Z,1012.92
2017-03-28T11:52:32.194Z,1012.81
2017-03-28T11:53:32.202Z,1012.76
2017-03-28T11:54:32.199Z,1012.87
2017-03-28T11:55:32.200Z,1012.89
2017-03-28T11:56:32.198Z,1012.86
2017-03-28T11:57:32.201Z,1012.81
2017-03-28T11:58:32.204Z,1012.79
2017-03-28T11:59:32.203Z,1012.81
2017-03-28T12:00:32.206Z,1012.77
2017-03-28T12:01:32.207Z,1012.77
2017-03-28T12:02:32.695Z,1012.83
2017-03-28T12:03:32.212Z,1012.79
2017-03-28T12:04:32.215Z,1012.78
2017-03-28T12:05:32.216Z,1012.72
2017-03-28T12:06:32.217Z,1012.68
2017-03-28T12:07:32.220Z,1012.81
2017-03-28T12:08:32.223Z,1012.79
2017-03-28T12:09:32.275Z,1012.72
2017-03-28T12:10:32.276Z,1012.79